Time;durP1;ratioP1;P1;durP2;ratioP2;P2;SDS_P1;SDS_P2;PMS_P1;PMS_P2;Temp;Humidity;BMP_temperature;BMP_pressure;BME280_temperature;BME280_humidity;BME280_pressure;Samples;Min_cycle;Max_cycle;Signal;HPM_P1;HPM_P2
2022/03/02 00:01:17;;;;;;;22.07;10.83;;;-1.50;99.90;;;;;;4994593;28;20193;-62
2022/03/02 00:03:43;;;;;;;15.03;7.33;;;-1.40;99.90;;;;;;4994173;28;20390;-62
2022/03/02 00:06:11;;;;;;;21.03;9.70;;;-1.40;99.90;;;;;;4994099;28;20231;-64
2022/03/02 00:08:37;;;;;;;15.63;8.77;;;-1.40;99.90;;;;;;4993963;28;20219;-63
2022/03/02 00:11:04;;;;;;;19.07;10.90;;;-1.40;99.90;;;;;;4994271;28;20203;-62
2022/03/02 00:13:30;;;;;;;17.37;9.63;;;-1.40;99.90;;;;;;4993723;28;20667;-61
2022/03/02 00:15:56;;;;;;;18.77;9.43;;;-1.40;99.90;;;;;;4994241;28;20186;-62
2022/03/02 00:18:22;;;;;;;16.30;8.30;;;-1.40;99.90;;;;;;4981616;28;20560;-62
2022/03/02 00:20:48;;;;;;;25.60;9.60;;;-1.40;99.90;;;;;;4974484;28;20195;-62
2022/03/02 00:23:13;;;;;;;17.30;9.70;;;-1.40;99.90;;;;;;4974550;28;20185;-62
2022/03/02 00:25:40;;;;;;;19.87;7.60;;;-1.40;99.90;;;;;;4974104;28;20202;-64
2022/03/02 00:28:06;;;;;;;18.83;9.47;;;-1.40;99.90;;;;;;4972534;28;20585;-62
2022/03/02 00:30:31;;;;;;;17.30;8.90;;;-1.40;99.90;;;;;;4974146;28;20257;-62
2022/03/02 00:32:59;;;;;;;22.43;10.30;;;-1.40;99.90;;;;;;4973082;28;20521;-61
2022/03/02 00:35:25;;;;;;;19.03;9.93;;;-1.40;99.90;;;;;;4972825;28;20687;-67
2022/03/02 00:37:51;;;;;;;18.13;9.07;;;-1.40;99.90;;;;;;4974384;28;20173;-61
2022/03/02 00:40:18;;;;;;;16.33;8.43;;;-1.40;99.90;;;;;;4973928;28;20260;-61
2022/03/02 00:42:44;;;;;;;18.13;9.70;;;-1.40;99.90;;;;;;4972445;28;20267;-62
2022/03/02 00:45:10;;;;;;;15.70;8.90;;;-1.40;99.90;;;;;;4973904;28;20541;-63
2022/03/02 00:47:37;;;;;;;19.23;9.43;;;-1.40;99.90;;;;;;4974157;28;20220;-63
2022/03/02 00:50:03;;;;;;;16.83;8.47;;;-1.40;99.90;;;;;;4973214;28;20697;-63
2022/03/02 00:52:29;;;;;;;16.83;8.70;;;-1.30;99.90;;;;;;4974144;28;20641;-62
2022/03/02 00:54:55;;;;;;;18.23;8.83;;;-1.30;99.90;;;;;;4974334;28;20267;-63
2022/03/02 00:57:21;;;;;;;18.77;9.03;;;-1.30;99.90;;;;;;4988887;28;20200;-63
2022/03/02 00:59:47;;;;;;;16.07;8.70;;;-1.30;99.90;;;;;;4973848;28;20193;-63
2022/03/02 01:02:12;;;;;;;14.80;7.37;;;-1.40;99.90;;;;;;4974041;28;20641;-63
2022/03/02 01:04:38;;;;;;;16.03;7.80;;;-1.40;99.90;;;;;;4973576;28;20193;-62
2022/03/02 01:07:04;;;;;;;19.03;9.57;;;-1.30;99.90;;;;;;4973748;28;20302;-62
2022/03/02 01:09:30;;;;;;;19.67;9.93;;;-1.40;99.90;;;;;;4973619;28;20275;-62
2022/03/02 01:11:56;;;;;;;15.03;7.77;;;-1.40;99.90;;;;;;4973716;28;20268;-64
2022/03/02 01:14:22;;;;;;;20.30;9.73;;;-1.40;99.90;;;;;;4973322;28;20294;-62
2022/03/02 01:16:48;;;;;;;17.53;8.77;;;-1.40;99.90;;;;;;4973318;28;20187;-62
2022/03/02 01:19:14;;;;;;;17.83;9.43;;;-1.40;99.90;;;;;;4992631;28;20190;-62
2022/03/02 01:21:40;;;;;;;19.20;9.57;;;-1.30;99.90;;;;;;4992592;28;20187;-62
2022/03/02 01:24:06;;;;;;;20.33;9.23;;;-1.30;99.90;;;;;;4992882;28;20188;-62
2022/03/02 01:26:32;;;;;;;19.10;9.87;;;-1.30;99.90;;;;;;4992735;28;20203;-63
2022/03/02 01:28:58;;;;;;;20.87;10.63;;;-1.40;99.90;;;;;;4993005;28;20186;-62
2022/03/02 01:31:26;;;;;;;18.83;9.03;;;-1.40;99.90;;;;;;4991184;28;20633;-62
2022/03/02 01:33:53;;;;;;;22.90;11.33;;;-1.40;99.90;;;;;;4992495;28;20282;-61
2022/03/02 01:36:19;;;;;;;19.50;9.63;;;-1.40;99.90;;;;;;4992528;28;20187;-62
2022/03/02 01:38:46;;;;;;;20.87;10.53;;;-1.40;99.90;;;;;;4992296;28;20197;-62
2022/03/02 01:41:19;;;;;;;16.43;8.77;;;-1.30;99.90;;;;;;4991781;28;20187;-62
2022/03/02 01:43:46;;;;;;;20.70;10.77;;;-1.30;99.90;;;;;;4992521;28;20188;-62
2022/03/02 01:46:13;;;;;;;19.13;10.10;;;-1.40;99.90;;;;;;4992312;28;20926;-62
2022/03/02 01:48:39;;;;;;;20.53;10.77;;;-1.40;99.90;;;;;;4992278;28;20196;-62
2022/03/02 01:51:05;;;;;;;22.37;11.23;;;-1.40;99.90;;;;;;4992637;28;20261;-62
2022/03/02 01:53:32;;;;;;;20.47;11.13;;;-1.30;99.90;;;;;;4992088;28;20313;-63
2022/03/02 01:55:59;;;;;;;18.40;10.00;;;-1.30;99.90;;;;;;4992577;28;20194;-65
2022/03/02 01:58:26;;;;;;;23.37;11.17;;;-1.30;99.90;;;;;;4992459;28;20188;-62
2022/03/02 02:00:52;;;;;;;25.03;12.27;;;-1.30;99.90;;;;;;4991952;28;20242;-62
2022/03/02 02:03:19;;;;;;;27.00;12.03;;;-1.40;99.90;;;;;;4992365;28;20180;-63
2022/03/02 02:05:45;;;;;;;26.13;13.03;;;-1.40;99.90;;;;;;4991836;28;20261;-62
2022/03/02 02:08:11;;;;;;;26.83;12.27;;;-1.40;99.90;;;;;;4992435;28;20183;-62
2022/03/02 02:10:37;;;;;;;28.27;12.87;;;-1.40;99.90;;;;;;4991804;28;20650;-62
2022/03/02 02:13:03;;;;;;;20.30;10.17;;;-1.40;99.90;;;;;;4992426;28;20191;-62
2022/03/02 02:15:29;;;;;;;18.47;10.27;;;-1.40;99.90;;;;;;4991887;28;20239;-61
2022/03/02 02:17:55;;;;;;;21.77;11.53;;;-1.40;99.90;;;;;;4981838;28;20590;-63
2022/03/02 02:20:23;;;;;;;22.13;12.07;;;-1.40;99.90;;;;;;4972888;28;20199;-63
2022/03/02 02:22:49;;;;;;;26.83;13.00;;;-1.40;99.90;;;;;;4971216;28;20668;-64
2022/03/02 02:25:16;;;;;;;26.13;12.53;;;-1.40;99.90;;;;;;4972918;28;20189;-60
2022/03/02 02:27:44;;;;;;;25.57;12.60;;;-1.40;99.90;;;;;;4972433;28;20557;-62
2022/03/02 02:30:12;;;;;;;23.83;12.30;;;-1.50;99.90;;;;;;4972628;28;20295;-62
2022/03/02 02:32:39;;;;;;;22.90;11.63;;;-1.50;99.90;;;;;;4970650;28;20188;-62
2022/03/02 02:35:07;;;;;;;23.50;12.40;;;-1.40;99.90;;;;;;4972203;28;20216;-63
2022/03/02 02:37:34;;;;;;;19.60;10.00;;;-1.40;99.90;;;;;;4971978;28;20188;-63
2022/03/02 02:40:07;;;;;;;22.97;11.00;;;-1.40;99.90;;;;;;4972480;28;20177;-63
2022/03/02 02:42:34;;;;;;;21.50;11.23;;;-1.50;99.90;;;;;;4972777;28;20212;-63
2022/03/02 02:45:00;;;;;;;24.67;11.50;;;-1.50;99.90;;;;;;4972355;28;20290;-64
2022/03/02 02:47:25;;;;;;;24.60;12.07;;;-1.50;99.90;;;;;;4972356;28;20215;-61
2022/03/02 02:49:51;;;;;;;27.37;12.40;;;-1.50;99.90;;;;;;4971936;28;20287;-62
2022/03/02 02:52:17;;;;;;;24.90;13.87;;;-1.50;99.90;;;;;;4974890;28;20191;-62
2022/03/02 02:54:43;;;;;;;29.13;13.30;;;-1.40;99.90;;;;;;4975571;28;20362;-64
2022/03/02 02:57:10;;;;;;;27.10;12.73;;;-1.50;99.90;;;;;;4976132;28;20216;-62
2022/03/02 02:59:36;;;;;;;25.50;13.37;;;-1.50;99.90;;;;;;4974488;28;20518;-63
2022/03/02 03:02:02;;;;;;;25.07;12.73;;;-1.50;99.90;;;;;;4975493;28;20184;-62
2022/03/02 03:04:28;;;;;;;24.67;13.03;;;-1.50;99.90;;;;;;4975740;28;20216;-62
2022/03/02 03:06:54;;;;;;;27.50;13.77;;;-1.50;99.90;;;;;;4975505;28;20692;-62
2022/03/02 03:09:20;;;;;;;20.73;9.77;;;-1.50;99.90;;;;;;4975830;28;20215;-62
2022/03/02 03:11:45;;;;;;;24.67;12.10;;;-1.50;99.90;;;;;;4975047;28;20200;-64
2022/03/02 03:14:13;;;;;;;21.77;9.70;;;-1.50;99.90;;;;;;4975311;28;20216;-62
2022/03/02 03:16:42;;;;;;;27.20;11.80;;;-1.50;99.90;;;;;;4975030;28;20181;-62
2022/03/02 03:19:09;;;;;;;21.97;11.57;;;-1.50;99.90;;;;;;4994068;28;20191;-60
2022/03/02 03:21:35;;;;;;;24.07;12.10;;;-1.50;99.90;;;;;;4994759;28;20532;-69
2022/03/02 03:24:01;;;;;;;25.83;11.77;;;-1.50;99.90;;;;;;4995242;28;20180;-62
2022/03/02 03:26:27;;;;;;;24.73;11.97;;;-1.50;99.90;;;;;;4995398;28;20249;-63
2022/03/02 03:28:53;;;;;;;28.13;13.83;;;-1.50;99.90;;;;;;4993366;28;20254;-62
2022/03/02 03:31:19;;;;;;;22.63;11.33;;;-1.50;99.90;;;;;;4994846;28;20183;-61
2022/03/02 03:33:45;;;;;;;25.27;12.07;;;-1.40;99.90;;;;;;4994312;28;20211;-61
2022/03/02 03:36:11;;;;;;;24.10;11.43;;;-1.50;99.90;;;;;;4994685;28;20599;-61
2022/03/02 03:38:37;;;;;;;27.57;13.53;;;-1.50;99.90;;;;;;4994635;28;20222;-63
2022/03/02 03:41:03;;;;;;;32.10;15.23;;;-1.50;99.90;;;;;;4993494;28;20262;-61
2022/03/02 03:43:29;;;;;;;29.07;13.60;;;-1.50;99.90;;;;;;4993681;28;20195;-62
2022/03/02 03:45:54;;;;;;;24.50;10.80;;;-1.50;99.90;;;;;;4994484;28;20183;-62
2022/03/02 03:48:20;;;;;;;22.17;10.73;;;-1.50;99.90;;;;;;4994449;28;20187;-62
2022/03/02 03:50:46;;;;;;;26.03;13.37;;;-1.60;99.90;;;;;;4993030;28;20288;-62
2022/03/02 03:53:12;;;;;;;26.13;13.03;;;-1.60;99.90;;;;;;4994403;28;20195;-64
2022/03/02 03:55:38;;;;;;;25.00;11.70;;;-1.60;99.90;;;;;;4994125;28;20195;-62
2022/03/02 03:58:05;;;;;;;25.77;13.27;;;-1.60;99.90;;;;;;4994434;28;20179;-62
2022/03/02 04:00:32;;;;;;;18.80;8.67;;;-1.60;99.90;;;;;;4994480;28;20187;-62
2022/03/02 04:02:58;;;;;;;26.90;12.40;;;-1.60;99.90;;;;;;4992984;28;20199;-63
2022/03/02 04:05:23;;;;;;;21.10;9.97;;;-1.60;99.90;;;;;;4994721;28;20635;-63
2022/03/02 04:07:49;;;;;;;27.93;12.47;;;-1.60;99.90;;;;;;4993911;28;20257;-62
2022/03/02 04:10:17;;;;;;;27.43;13.60;;;-1.60;99.90;;;;;;4994140;28;20199;-62
2022/03/02 04:12:44;;;;;;;22.80;11.93;;;-1.60;99.90;;;;;;4993803;28;20544;-65
2022/03/02 04:15:11;;;;;;;26.40;12.70;;;-1.60;99.90;;;;;;4993996;28;21069;-62
2022/03/02 04:17:37;;;;;;;28.07;14.87;;;-1.60;99.90;;;;;;4987225;28;20184;-61
2022/03/02 04:20:06;;;;;;;24.23;11.47;;;-1.60;99.90;;;;;;4974686;28;20216;-61
2022/03/02 04:22:32;;;;;;;28.43;14.83;;;-1.60;99.90;;;;;;4974730;28;20180;-63
2022/03/02 04:24:58;;;;;;;30.20;12.23;;;-1.60;99.90;;;;;;4974249;28;20196;-61
2022/03/02 04:27:24;;;;;;;20.17;9.77;;;-1.60;99.90;;;;;;4974373;28;20192;-62
2022/03/02 04:29:50;;;;;;;22.20;10.40;;;-1.60;99.90;;;;;;4974252;28;20671;-62
2022/03/02 04:32:16;;;;;;;24.87;11.60;;;-1.60;99.90;;;;;;4973907;28;20192;-61
2022/03/02 04:34:42;;;;;;;21.80;10.90;;;-1.60;99.90;;;;;;4973863;28;20751;-62
2022/03/02 04:37:07;;;;;;;20.97;9.70;;;-1.60;99.90;;;;;;4972947;28;20276;-61
2022/03/02 04:39:33;;;;;;;22.57;9.73;;;-1.60;99.90;;;;;;4973682;28;20177;-61
2022/03/02 04:41:59;;;;;;;25.93;12.33;;;-1.60;99.90;;;;;;4973411;28;20200;-63
2022/03/02 04:44:25;;;;;;;21.53;11.03;;;-1.50;99.90;;;;;;4972530;28;20200;-63
2022/03/02 04:46:51;;;;;;;25.97;12.63;;;-1.50;99.90;;;;;;4973714;28;20310;-62
2022/03/02 04:49:19;;;;;;;22.90;11.30;;;-1.50;99.90;;;;;;4973663;28;20648;-62
2022/03/02 04:51:46;;;;;;;21.73;9.83;;;-1.50;99.90;;;;;;4973432;28;20239;-62
2022/03/02 04:55:05;;;;;;;64.00;15.00;;;-1.50;99.90;;;;;;4973600;28;20584;-61
2022/03/02 04:56:58;;;;;;;22.07;12.10;;;-1.50;99.90;;;;;;4972979;28;20198;-63
2022/03/02 04:59:24;;;;;;;21.00;10.10;;;-1.50;99.90;;;;;;4973630;28;20188;-63
2022/03/02 05:01:50;;;;;;;15.90;7.60;;;-1.50;99.90;;;;;;4973404;28;20709;-63
2022/03/02 05:04:16;;;;;;;16.70;8.73;;;-1.50;99.90;;;;;;4973412;28;20189;-62
2022/03/02 05:06:41;;;;;;;27.43;13.33;;;-1.50;99.90;;;;;;4972969;28;20231;-62
2022/03/02 05:09:07;;;;;;;24.53;12.13;;;-1.50;99.90;;;;;;4956298;28;20533;-63
2022/03/02 05:11:33;;;;;;;25.43;12.13;;;-1.50;99.90;;;;;;4972924;28;20660;-63
2022/03/02 05:13:59;;;;;;;29.47;12.03;;;-1.50;99.90;;;;;;4972874;28;20227;-63
2022/03/02 05:16:24;;;;;;;27.63;12.23;;;-1.50;99.90;;;;;;4972819;28;20200;-62
2022/03/02 05:18:50;;;;;;;26.80;11.87;;;-1.50;99.90;;;;;;4987705;28;20640;-64
2022/03/02 05:21:16;;;;;;;18.07;8.63;;;-1.40;99.90;;;;;;4991400;28;20194;-64
2022/03/02 05:23:41;;;;;;;25.03;12.03;;;-1.40;99.90;;;;;;4990610;28;20187;-66
2022/03/02 05:26:08;;;;;;;23.60;9.97;;;-1.50;99.90;;;;;;4992305;28;20487;-62
2022/03/02 05:28:34;;;;;;;18.33;8.63;;;-1.40;99.90;;;;;;4974808;28;20238;-63
2022/03/02 05:31:00;;;;;;;22.80;10.20;;;-1.50;99.90;;;;;;4991698;28;20183;-64
2022/03/02 05:33:26;;;;;;;22.90;10.77;;;-1.40;99.90;;;;;;4991964;28;20520;-65
2022/03/02 05:35:52;;;;;;;22.30;10.83;;;-1.40;99.90;;;;;;4973787;28;20546;-63
2022/03/02 05:38:17;;;;;;;26.37;11.67;;;-1.40;99.90;;;;;;4991809;28;20536;-64
2022/03/02 05:40:43;;;;;;;29.57;10.87;;;-1.40;99.90;;;;;;4990115;28;20187;-63
2022/03/02 05:43:09;;;;;;;23.53;10.97;;;-1.40;99.90;;;;;;4991554;28;20587;-63
2022/03/02 05:45:35;;;;;;;25.90;13.17;;;-1.40;99.90;;;;;;4990607;28;20198;-63
2022/03/02 05:48:00;;;;;;;26.27;13.13;;;-1.40;99.90;;;;;;4989563;28;20199;-64
2022/03/02 05:50:26;;;;;;;20.10;11.03;;;-1.30;99.90;;;;;;4990952;28;20188;-64
2022/03/02 05:52:52;;;;;;;27.23;12.33;;;-1.30;99.90;;;;;;4989185;28;20191;-64
2022/03/02 05:55:18;;;;;;;27.90;14.03;;;-1.30;99.90;;;;;;4990027;28;20324;-63
2022/03/02 05:57:44;;;;;;;24.17;12.87;;;-1.20;99.90;;;;;;4991147;28;20190;-65
2022/03/02 06:00:10;;;;;;;15.40;7.20;;;-1.30;99.90;;;;;;4991203;28;20186;-63
2022/03/02 06:02:36;;;;;;;24.37;12.00;;;-1.30;99.90;;;;;;4991254;28;20193;-63
2022/03/02 06:05:02;;;;;;;24.70;11.17;;;-1.30;99.90;;;;;;4990311;28;20619;-64
2022/03/02 06:07:28;;;;;;;25.17;10.97;;;-1.20;99.90;;;;;;4989358;28;20589;-64
2022/03/02 06:09:54;;;;;;;27.40;12.13;;;-1.20;99.90;;;;;;4991113;28;20176;-66
2022/03/02 06:12:20;;;;;;;26.33;12.07;;;-1.30;99.90;;;;;;4991323;28;20607;-64
2022/03/02 06:14:46;;;;;;;25.17;12.67;;;-1.20;99.90;;;;;;4990938;28;20214;-63
2022/03/02 06:17:12;;;;;;;20.47;9.30;;;-1.30;99.90;;;;;;4988011;28;20187;-63
2022/03/02 06:19:38;;;;;;;24.87;12.17;;;-1.30;99.90;;;;;;4972057;28;20192;-65
2022/03/02 06:22:05;;;;;;;21.73;10.87;;;-1.30;99.90;;;;;;4971258;28;20188;-65
2022/03/02 06:24:31;;;;;;;24.73;12.37;;;-1.30;99.90;;;;;;4971371;28;20190;-64
2022/03/02 06:26:58;;;;;;;33.20;12.90;;;-1.20;99.90;;;;;;4973750;28;20191;-64
2022/03/02 06:29:23;;;;;;;18.27;9.20;;;-1.20;99.90;;;;;;4974908;28;20191;-63
2022/03/02 06:31:50;;;;;;;27.97;14.37;;;-1.10;99.90;;;;;;4974502;28;20237;-65
2022/03/02 06:34:16;;;;;;;33.40;13.90;;;-1.10;99.90;;;;;;4975237;28;20645;-62
2022/03/02 06:36:42;;;;;;;30.33;13.50;;;-1.10;99.90;;;;;;4975582;28;20188;-62
2022/03/02 06:39:08;;;;;;;29.17;13.30;;;-1.10;99.90;;;;;;4975205;28;20184;-61
2022/03/02 06:41:46;;;;;;;23.17;10.27;;;-1.10;99.90;;;;;;4980158;28;20207;-62
2022/03/02 06:44:31;;;;;;;29.63;13.03;;;-1.00;99.90;;;;;;4990991;28;20202;-61
2022/03/02 06:47:02;;;;;;;26.00;11.60;;;-1.00;99.90;;;;;;4990244;28;20213;-63
2022/03/02 06:49:45;;;;;;;25.67;12.10;;;-1.00;99.90;;;;;;5006496;28;20715;-61
2022/03/02 06:52:12;;;;;;;24.90;11.63;;;-0.90;99.90;;;;;;4991986;28;20195;-63
2022/03/02 06:54:43;;;;;;;24.60;11.77;;;-0.90;99.90;;;;;;4994021;28;20605;-66
2022/03/02 06:57:13;;;;;;;30.00;14.20;;;-1.00;99.90;;;;;;4983498;28;20196;-66
2022/03/02 06:59:43;;;;;;;26.00;12.43;;;-0.90;99.90;;;;;;5001585;28;20546;-65
2022/03/02 07:02:11;;;;;;;26.87;12.17;;;-0.90;99.90;;;;;;5016646;28;20180;-62
2022/03/02 07:04:42;;;;;;;27.43;12.57;;;-0.80;99.90;;;;;;4999030;28;20197;-61
2022/03/02 07:07:08;;;;;;;22.40;10.73;;;-0.90;99.90;;;;;;4986845;28;20318;-62
2022/03/02 07:09:35;;;;;;;27.40;12.87;;;-0.80;99.90;;;;;;4984588;28;20195;-64
2022/03/02 07:12:02;;;;;;;26.37;12.03;;;-0.80;99.90;;;;;;4987386;28;20605;-66
2022/03/02 07:14:30;;;;;;;24.13;11.83;;;-0.80;99.90;;;;;;4983813;28;20251;-64
2022/03/02 07:16:57;;;;;;;28.07;12.33;;;-0.90;99.90;;;;;;4988019;28;20324;-70
2022/03/02 07:19:24;;;;;;;23.27;12.77;;;-0.80;99.90;;;;;;4985507;28;20233;-65
2022/03/02 07:21:50;;;;;;;29.87;12.83;;;-0.80;99.90;;;;;;4990538;28;20214;-64
2022/03/02 07:24:17;;;;;;;26.37;11.03;;;-0.80;99.90;;;;;;4987095;28;20292;-67
2022/03/02 07:26:53;;;;;;;22.07;10.73;;;-0.80;99.90;;;;;;4983610;28;20223;-66
2022/03/02 07:29:21;;;;;;;21.17;11.83;;;-0.80;99.90;;;;;;4998137;28;20171;-64
2022/03/02 07:31:48;;;;;;;22.83;11.83;;;-0.90;99.90;;;;;;4986145;28;20178;-62
2022/03/02 07:34:15;;;;;;;19.07;9.33;;;-0.90;99.90;;;;;;5012275;28;20214;-64
2022/03/02 07:36:41;;;;;;;24.93;13.13;;;-0.80;99.90;;;;;;4981878;28;20206;-64
2022/03/02 07:39:08;;;;;;;24.53;12.17;;;-0.80;99.90;;;;;;5000004;28;20233;-64
2022/03/02 07:41:35;;;;;;;21.97;11.60;;;-0.80;99.90;;;;;;4991427;28;20267;-64
2022/03/02 07:44:01;;;;;;;27.23;11.93;;;-0.70;99.90;;;;;;5001416;28;20195;-61
2022/03/02 07:46:29;;;;;;;19.70;9.77;;;-0.70;99.90;;;;;;4985455;28;20621;-61
2022/03/02 07:48:56;;;;;;;30.60;13.03;;;-0.70;99.90;;;;;;5002957;28;20613;-64
2022/03/02 07:51:23;;;;;;;26.63;11.73;;;-0.70;99.90;;;;;;4981189;28;20208;-65
2022/03/02 07:53:51;;;;;;;24.13;11.87;;;-0.60;99.90;;;;;;5011250;28;20234;-65
2022/03/02 07:56:18;;;;;;;22.77;11.37;;;-0.60;99.90;;;;;;4985818;28;20224;-62
2022/03/02 07:58:44;;;;;;;26.93;12.80;;;-0.50;99.90;;;;;;4975998;28;20557;-61
2022/03/02 08:01:15;;;;;;;24.63;12.40;;;-0.50;99.90;;;;;;4989007;28;20192;-60
2022/03/02 08:03:43;;;;;;;22.17;11.30;;;-0.50;99.90;;;;;;4999090;28;20214;-62
2022/03/02 08:06:10;;;;;;;19.93;9.47;;;-0.40;99.90;;;;;;4984264;28;20239;-64
2022/03/02 08:08:37;;;;;;;24.67;11.53;;;-0.40;99.90;;;;;;5024679;28;20253;-66
2022/03/02 08:11:04;;;;;;;26.77;11.23;;;-0.50;99.90;;;;;;4985877;28;20256;-63
2022/03/02 08:13:32;;;;;;;26.33;12.30;;;-0.50;99.90;;;;;;5010487;28;20348;-66
2022/03/02 08:15:57;;;;;;;23.33;12.07;;;-0.50;99.90;;;;;;4988135;28;20677;-66
2022/03/02 08:18:23;;;;;;;24.40;12.50;;;-0.40;99.90;;;;;;5006527;28;20198;-64
2022/03/02 08:20:51;;;;;;;24.33;11.53;;;-0.30;99.90;;;;;;5004320;28;20213;-70
2022/03/02 08:23:21;;;;;;;16.80;8.93;;;-0.30;99.90;;;;;;5004199;28;20250;-63
2022/03/02 08:25:51;;;;;;;20.23;10.00;;;-0.20;99.90;;;;;;4990293;28;20185;-63
2022/03/02 08:28:18;;;;;;;21.30;11.03;;;-0.10;99.90;;;;;;5000271;28;20273;-61
2022/03/02 08:30:47;;;;;;;26.33;12.93;;;-0.10;99.90;;;;;;4991435;28;20186;-64
2022/03/02 08:33:19;;;;;;;20.43;9.90;;;-0.10;99.90;;;;;;4991008;28;20184;-63
2022/03/02 08:35:46;;;;;;;21.27;10.37;;;-0.10;99.90;;;;;;4990255;28;20208;-64
2022/03/02 08:38:12;;;;;;;20.63;9.73;;;0.00;99.90;;;;;;4988805;28;20184;-66
2022/03/02 08:40:38;;;;;;;25.50;11.00;;;0.10;99.90;;;;;;4991163;28;20275;-65
2022/03/02 08:43:06;;;;;;;24.00;12.53;;;0.10;99.90;;;;;;4990021;28;20271;-63
2022/03/02 08:45:32;;;;;;;23.80;11.50;;;0.10;99.90;;;;;;4989998;28;20180;-65
2022/03/02 08:48:03;;;;;;;20.47;12.00;;;0.10;99.90;;;;;;4989746;28;20185;-63
2022/03/02 08:50:29;;;;;;;20.70;10.83;;;0.00;99.90;;;;;;4988649;28;20199;-64
2022/03/02 08:52:57;;;;;;;23.13;11.40;;;0.10;99.90;;;;;;4988550;28;20192;-64
2022/03/02 08:55:31;;;;;;;21.47;11.80;;;0.00;99.90;;;;;;4988814;28;20305;-64
2022/03/02 08:57:58;;;;;;;20.23;10.10;;;-0.10;99.90;;;;;;4989190;28;20176;-63
2022/03/02 09:00:25;;;;;;;19.03;11.17;;;-0.10;99.90;;;;;;4988969;28;20188;-64
2022/03/02 09:02:53;;;;;;;19.03;9.73;;;-0.10;99.90;;;;;;5004940;28;20625;-63
2022/03/02 09:05:19;;;;;;;17.70;9.40;;;-0.20;99.90;;;;;;4992013;28;20648;-64
2022/03/02 09:07:45;;;;;;;21.07;10.87;;;-0.30;99.90;;;;;;4992549;28;20236;-62
2022/03/02 09:10:11;;;;;;;19.23;9.90;;;-0.30;99.90;;;;;;4991621;28;20204;-61
2022/03/02 09:12:41;;;;;;;19.37;10.03;;;-0.20;99.90;;;;;;4992487;28;20192;-61
2022/03/02 09:15:07;;;;;;;20.77;10.03;;;-0.20;99.90;;;;;;4992178;28;20216;-61
2022/03/02 09:17:33;;;;;;;17.03;9.17;;;-0.20;99.90;;;;;;4986039;28;20177;-63
2022/03/02 09:19:59;;;;;;;21.87;10.27;;;-0.30;99.90;;;;;;4971038;28;20184;-63
2022/03/02 09:22:27;;;;;;;19.27;10.80;;;-0.40;99.90;;;;;;4971762;28;20195;-63
2022/03/02 09:24:53;;;;;;;22.13;10.63;;;-0.20;99.90;;;;;;4972074;28;20188;-69
2022/03/02 09:27:20;;;;;;;17.93;8.50;;;-0.20;99.90;;;;;;4972244;28;20656;-61
2022/03/02 09:29:48;;;;;;;16.77;7.67;;;-0.10;99.90;;;;;;4972195;28;20185;-63
2022/03/02 09:32:15;;;;;;;22.57;10.17;;;-0.10;99.90;;;;;;4972047;28;20185;-63
2022/03/02 09:34:45;;;;;;;18.23;9.70;;;-0.10;99.90;;;;;;4972705;28;20315;-64
2022/03/02 09:37:14;;;;;;;20.60;11.37;;;-0.10;99.90;;;;;;4972032;28;20195;-62
2022/03/02 09:39:42;;;;;;;18.90;9.13;;;0.00;99.90;;;;;;4972320;28;20399;-63
2022/03/02 09:42:15;;;;;;;18.00;9.57;;;0.10;99.90;;;;;;4971430;28;20733;-62
2022/03/02 09:44:52;;;;;;;20.10;10.00;;;0.00;99.90;;;;;;4972023;28;20211;-64
2022/03/02 09:47:24;;;;;;;25.30;11.27;;;0.00;99.90;;;;;;4970686;28;20238;-64
2022/03/02 09:49:55;;;;;;;17.43;9.83;;;-0.10;99.90;;;;;;4972303;28;20180;-62
2022/03/02 09:52:22;;;;;;;16.97;8.27;;;0.00;99.90;;;;;;4972459;28;20196;-63
2022/03/02 09:54:54;;;;;;;22.97;9.77;;;0.10;99.90;;;;;;4971857;28;20307;-64
2022/03/02 09:57:21;;;;;;;16.93;9.20;;;0.00;99.90;;;;;;4970382;28;20192;-62
2022/03/02 09:59:53;;;;;;;19.77;10.40;;;0.00;99.90;;;;;;4971517;28;20189;-62
2022/03/02 10:02:37;;;;;;;25.20;13.83;;;0.00;99.90;;;;;;4971179;28;20235;-62
2022/03/02 10:05:16;;;;;;;23.33;11.30;;;0.20;99.90;;;;;;4971586;28;20731;-63
2022/03/02 10:07:52;;;;;;;22.00;10.60;;;0.20;99.90;;;;;;4969792;28;20779;-63
2022/03/02 10:10:22;;;;;;;23.77;10.97;;;0.10;99.90;;;;;;4972062;28;20181;-62
2022/03/02 10:12:49;;;;;;;18.40;8.87;;;0.10;99.90;;;;;;4971523;28;20189;-62
2022/03/02 10:15:15;;;;;;;22.53;13.00;;;0.10;99.90;;;;;;4953810;28;20259;-62
2022/03/02 10:17:44;;;;;;;17.90;9.43;;;0.10;99.90;;;;;;4977300;28;20211;-63
2022/03/02 10:20:16;;;;;;;21.07;11.87;;;0.20;99.90;;;;;;4990572;28;20215;-62
2022/03/02 10:22:42;;;;;;;17.53;7.70;;;0.20;99.90;;;;;;4990858;28;20176;-64
2022/03/02 10:25:11;;;;;;;29.30;11.63;;;0.30;99.90;;;;;;4990409;28;20649;-63
2022/03/02 10:28:06;;;;;;;25.13;12.23;;;0.30;99.90;;;;;;4989700;28;20210;-62
2022/03/02 10:30:36;;;;;;;21.10;10.43;;;0.50;99.90;;;;;;4990868;28;20192;-62
2022/03/02 10:33:23;;;;;;;17.53;9.30;;;0.50;99.90;;;;;;4990353;28;20598;-65
2022/03/02 10:36:03;;;;;;;22.23;9.57;;;0.50;99.90;;;;;;4990424;28;20235;-64
2022/03/02 10:38:49;;;;;;;21.63;10.70;;;0.60;99.90;;;;;;4990259;28;20253;-63
2022/03/02 10:41:19;;;;;;;22.77;11.33;;;0.90;99.90;;;;;;4990184;28;20185;-62
2022/03/02 10:44:05;;;;;;;18.80;9.80;;;0.80;99.90;;;;;;4990987;28;20712;-64
2022/03/02 10:46:31;;;;;;;19.17;10.73;;;0.70;99.90;;;;;;4983756;28;20247;-63
2022/03/02 10:49:11;;;;;;;20.07;12.50;;;0.50;99.90;;;;;;4990997;28;20262;-70
2022/03/02 10:51:41;;;;;;;18.73;7.93;;;0.50;99.90;;;;;;4989757;28;20483;-62
2022/03/02 10:54:08;;;;;;;18.90;9.33;;;0.40;99.90;;;;;;4990720;28;20286;-63
2022/03/02 10:56:39;;;;;;;17.60;9.43;;;0.30;99.90;;;;;;4988838;28;20184;-63
2022/03/02 10:59:11;;;;;;;18.90;10.33;;;0.30;99.90;;;;;;4989958;28;20594;-62
2022/03/02 11:01:37;;;;;;;27.03;11.93;;;0.30;99.90;;;;;;4987147;28;20231;-64
2022/03/02 11:04:06;;;;;;;20.07;10.03;;;0.40;99.90;;;;;;4971438;28;20268;-63
2022/03/02 11:06:32;;;;;;;19.83;10.00;;;0.50;99.90;;;;;;4988622;28;20228;-63
2022/03/02 11:09:00;;;;;;;18.27;9.23;;;0.40;99.90;;;;;;4988885;28;20578;-73
2022/03/02 11:11:26;;;;;;;20.67;10.33;;;0.50;99.90;;;;;;4989468;28;20524;-63
2022/03/02 11:13:54;;;;;;;19.63;11.00;;;0.30;99.90;;;;;;4992648;28;20256;-62
2022/03/02 11:16:22;;;;;;;14.80;7.67;;;0.20;99.90;;;;;;5008453;28;20635;-63
2022/03/02 11:18:51;;;;;;;16.70;8.20;;;0.30;99.90;;;;;;4992893;28;20207;-61
2022/03/02 11:21:27;;;;;;;20.73;11.20;;;0.20;99.90;;;;;;4993515;28;20195;-64
2022/03/02 11:23:59;;;;;;;13.20;7.53;;;0.30;99.90;;;;;;4992145;28;20261;-62
2022/03/02 11:26:34;;;;;;;15.87;8.53;;;0.40;99.90;;;;;;4992818;28;20192;-63
2022/03/02 11:29:11;;;;;;;20.37;9.77;;;0.40;99.90;;;;;;4992012;28;20194;-71
2022/03/02 11:31:45;;;;;;;18.17;9.93;;;0.40;99.90;;;;;;4992280;28;20203;-62
2022/03/02 11:34:14;;;;;;;20.43;8.93;;;0.50;99.90;;;;;;4993127;28;20349;-62
2022/03/02 11:36:44;;;;;;;18.97;9.50;;;0.60;99.90;;;;;;4993326;28;20258;-65
2022/03/02 11:39:11;;;;;;;16.80;8.83;;;0.80;99.90;;;;;;4992934;28;20184;-63
2022/03/02 11:41:40;;;;;;;13.70;8.27;;;0.90;99.90;;;;;;4993675;28;20629;-63
2022/03/02 11:44:24;;;;;;;21.47;10.30;;;1.00;99.90;;;;;;4991635;28;20274;-63
2022/03/02 11:46:50;;;;;;;16.80;9.67;;;1.00;99.90;;;;;;4993026;28;20188;-63
2022/03/02 11:49:16;;;;;;;22.70;10.10;;;1.00;99.90;;;;;;4991515;28;20193;-63
2022/03/02 11:51:42;;;;;;;14.03;7.77;;;1.10;99.90;;;;;;4991612;28;20184;-63
2022/03/02 11:54:10;;;;;;;13.03;6.13;;;0.80;99.90;;;;;;4975708;28;20219;-64
2022/03/02 11:56:35;;;;;;;13.87;7.23;;;0.70;99.90;;;;;;4991753;28;20192;-65
2022/03/02 11:59:11;;;;;;;22.40;10.07;;;0.80;99.90;;;;;;4990723;28;20184;-73
2022/03/02 12:01:41;;;;;;;20.17;10.60;;;1.00;99.90;;;;;;4990972;28;20491;-62
2022/03/02 12:04:07;;;;;;;20.33;10.40;;;1.10;99.90;;;;;;4992841;28;20194;-62
2022/03/02 12:06:52;;;;;;;16.27;8.00;;;1.30;99.90;;;;;;4992817;28;20680;-62
2022/03/02 12:09:29;;;;;;;17.00;9.37;;;1.50;99.90;;;;;;4992626;28;20193;-63
2022/03/02 12:12:16;;;;;;;17.00;9.23;;;1.20;99.90;;;;;;4992977;28;20192;-65
2022/03/02 12:14:56;;;;;;;19.10;9.67;;;1.10;99.90;;;;;;4992623;28;20656;-63
2022/03/02 12:17:28;;;;;;;17.33;10.73;;;1.10;99.90;;;;;;4988496;28;20538;-61
2022/03/02 12:19:59;;;;;;;22.43;11.27;;;1.20;99.90;;;;;;4973321;28;20561;-62
2022/03/02 12:22:37;;;;;;;20.13;10.10;;;1.30;99.90;;;;;;4968664;28;20224;-61
2022/03/02 12:25:06;;;;;;;17.10;8.53;;;1.20;99.90;;;;;;4972081;28;20185;-64
2022/03/02 12:27:32;;;;;;;15.87;7.67;;;1.30;99.90;;;;;;4972740;28;20186;-64
2022/03/02 12:30:10;;;;;;;11.53;5.97;;;1.20;99.90;;;;;;4972855;28;20272;-63
2022/03/02 12:32:41;;;;;;;19.30;9.70;;;1.30;99.90;;;;;;4972737;28;20268;-61
2022/03/02 12:35:11;;;;;;;23.73;9.77;;;1.20;99.90;;;;;;4972329;28;20272;-62
2022/03/02 12:37:36;;;;;;;20.13;9.93;;;1.20;99.90;;;;;;4972811;28;20185;-60